Ana Sayfa
METAR-TAF:

METAR-TAF

Havaalanları :

Oklahoma City, Oklahoma, Amerika Birleşik Devletleri

Enlem: 35-29-17N, Boylam: 097-49-25W, yükseklik: 413 m

Güncel hava durumu gözlemi

Rapor saat 13:55 UTC de 40 dakika önce yapıldı.
Rüzgar güneydan 18 kt
Sıcaklık 29°C
Nem 66%
Basınç 1013 hPa
Görüş mesafesi: 16.1 km
Açık gökyüzü

METAR: KRCE 251355Z AUTO 19018KT 10SM CLR 29/22 A2990 RMK AO2 TSNO

Saat: 09:35 (14:35 UTC)


TAF: eksik

4.000'den fazla havaalanı için hava durumu gözlemleri ve tahminleri (METAR ve TAF raporları).

Kullanılabilir istasyonlar harita üzerinde sarı ve kırmızı noktalarla gösterilir.

İstasyonun adını görmek için fareyi noktanın üzerinde gezdirin.

Sonrasında hava gözlem ve tahminlerini görmek için tıklayın.

Haritayı değiştirmek için: yaklaştırmak için siyah artı işaretli yeşil düğmeye ve uzaklaştırmak için de eksi işaretli düğmeye hızla tıklayın; bitişik haritalar için yeşil okları kullanın.


METAR-TAF: